sensor_id;sensor_type;location;lat;lon;timestamp;pressure;altitude;pressure_sealevel;temperature;humidity
74542;BME280;63015;45.378;20.360;2023-04-25T00:00:15;99645.47;;;13.35;76.10
74542;BME280;63015;45.378;20.360;2023-04-25T00:02:17;99647.19;;;13.37;76.05
74542;BME280;63015;45.378;20.360;2023-04-25T00:04:18;99647.16;;;13.39;76.02
74542;BME280;63015;45.378;20.360;2023-04-25T00:06:18;99638.38;;;13.41;75.69
74542;BME280;63015;45.378;20.360;2023-04-25T00:08:19;99642.66;;;13.44;75.93
74542;BME280;63015;45.378;20.360;2023-04-25T00:10:20;99651.41;;;13.43;75.81
74542;BME280;63015;45.378;20.360;2023-04-25T00:12:21;99650.59;;;13.41;75.98
74542;BME280;63015;45.378;20.360;2023-04-25T00:14:23;99648.06;;;13.36;76.58
74542;BME280;63015;45.378;20.360;2023-04-25T00:16:23;99638.75;;;13.24;77.41
74542;BME280;63015;45.378;20.360;2023-04-25T00:18:24;99650.16;;;13.22;77.21
74542;BME280;63015;45.378;20.360;2023-04-25T00:20:25;99644.94;;;13.22;77.34
74542;BME280;63015;45.378;20.360;2023-04-25T00:22:25;99643.94;;;13.26;76.78
74542;BME280;63015;45.378;20.360;2023-04-25T00:24:26;99643.09;;;13.25;76.96
74542;BME280;63015;45.378;20.360;2023-04-25T00:26:27;99654.41;;;13.26;77.35
74542;BME280;63015;45.378;20.360;2023-04-25T00:28:27;99648.34;;;13.25;77.37
74542;BME280;63015;45.378;20.360;2023-04-25T00:30:28;99654.38;;;13.27;77.13
74542;BME280;63015;45.378;20.360;2023-04-25T00:32:29;99645.63;;;13.28;77.32
74542;BME280;63015;45.378;20.360;2023-04-25T00:34:30;99640.44;;;13.27;77.43
74542;BME280;63015;45.378;20.360;2023-04-25T00:36:31;99646.72;;;13.20;78.42
74542;BME280;63015;45.378;20.360;2023-04-25T00:38:32;99640.50;;;13.24;77.59
74542;BME280;63015;45.378;20.360;2023-04-25T00:40:33;99638.84;;;13.20;78.40
74542;BME280;63015;45.378;20.360;2023-04-25T00:42:35;99646.59;;;13.24;77.90
74542;BME280;63015;45.378;20.360;2023-04-25T00:44:37;99637.00;;;13.25;77.88
74542;BME280;63015;45.378;20.360;2023-04-25T00:46:38;99633.41;;;13.29;77.50
74542;BME280;63015;45.378;20.360;2023-04-25T00:48:40;99644.69;;;13.31;77.62
74542;BME280;63015;45.378;20.360;2023-04-25T00:50:41;99636.81;;;13.32;77.62
74542;BME280;63015;45.378;20.360;2023-04-25T00:52:44;99640.34;;;13.30;78.09
74542;BME280;63015;45.378;20.360;2023-04-25T00:54:45;99642.91;;;13.33;78.04
74542;BME280;63015;45.378;20.360;2023-04-25T00:56:46;99645.44;;;13.38;77.47
74542;BME280;63015;45.378;20.360;2023-04-25T00:58:47;99648.00;;;13.41;77.37
74542;BME280;63015;45.378;20.360;2023-04-25T01:00:50;99642.72;;;13.42;77.45
74542;BME280;63015;45.378;20.360;2023-04-25T01:02:52;99647.06;;;13.43;77.54
74542;BME280;63015;45.378;20.360;2023-04-25T01:04:53;99642.56;;;13.48;77.12
74542;BME280;63015;45.378;20.360;2023-04-25T01:06:53;99645.19;;;13.47;77.33
74542;BME280;63015;45.378;20.360;2023-04-25T01:08:54;99651.34;;;13.46;77.77
74542;BME280;63015;45.378;20.360;2023-04-25T01:10:55;99646.88;;;13.49;77.39
74542;BME280;63015;45.378;20.360;2023-04-25T01:12:56;99648.59;;;13.51;77.31
74542;BME280;63015;45.378;20.360;2023-04-25T01:14:57;99656.41;;;13.52;77.55
74542;BME280;63015;45.378;20.360;2023-04-25T01:16:58;99652.91;;;13.53;77.46
74542;BME280;63015;45.378;20.360;2023-04-25T01:18:59;99652.84;;;13.55;77.43
74542;BME280;63015;45.378;20.360;2023-04-25T01:21:18;99657.28;;;13.53;77.81
74542;BME280;63015;45.378;20.360;2023-04-25T01:23:22;99658.22;;;13.50;77.91
74542;BME280;63015;45.378;20.360;2023-04-25T01:25:23;99643.50;;;13.44;78.20
74542;BME280;63015;45.378;20.360;2023-04-25T01:27:24;99642.66;;;13.44;78.35
74542;BME280;63015;45.378;20.360;2023-04-25T01:29:27;99642.56;;;13.47;78.30
74542;BME280;63015;45.378;20.360;2023-04-25T01:31:28;99630.56;;;13.40;79.49
74542;BME280;63015;45.378;20.360;2023-04-25T01:33:29;99635.78;;;13.40;79.18
74542;BME280;63015;45.378;20.360;2023-04-25T01:35:30;99640.13;;;13.41;79.16
74542;BME280;63015;45.378;20.360;2023-04-25T01:37:30;99630.03;;;13.25;80.84
74542;BME280;63015;45.378;20.360;2023-04-25T01:39:31;99624.03;;;13.20;81.41
74542;BME280;63015;45.378;20.360;2023-04-25T01:41:33;99628.16;;;13.30;80.53
74542;BME280;63015;45.378;20.360;2023-04-25T01:43:37;99622.97;;;13.27;80.61
74542;BME280;63015;45.378;20.360;2023-04-25T01:45:38;99621.88;;;13.36;80.07
74542;BME280;63015;45.378;20.360;2023-04-25T01:47:42;99628.00;;;13.37;80.25
74542;BME280;63015;45.378;20.360;2023-04-25T01:49:44;99623.88;;;13.26;81.01
74542;BME280;63015;45.378;20.360;2023-04-25T01:51:44;99632.59;;;13.27;81.42
74542;BME280;63015;45.378;20.360;2023-04-25T01:53:45;99628.28;;;13.24;81.46
74542;BME280;63015;45.378;20.360;2023-04-25T01:55:47;99630.75;;;13.30;80.88
74542;BME280;63015;45.378;20.360;2023-04-25T01:57:50;99624.69;;;13.28;81.19
74542;BME280;63015;45.378;20.360;2023-04-25T01:59:58;99626.56;;;13.23;81.55
74542;BME280;63015;45.378;20.360;2023-04-25T02:02:14;99621.53;;;13.15;81.91
74542;BME280;63015;45.378;20.360;2023-04-25T02:04:15;99615.31;;;13.20;82.01
74542;BME280;63015;45.378;20.360;2023-04-25T02:06:15;99611.66;;;13.27;81.21
74542;BME280;63015;45.378;20.360;2023-04-25T02:08:18;99626.63;;;13.22;81.91
74542;BME280;63015;45.378;20.360;2023-04-25T02:10:19;99615.22;;;13.24;81.45
74542;BME280;63015;45.378;20.360;2023-04-25T02:12:39;99622.09;;;13.28;81.03
74542;BME280;63015;45.378;20.360;2023-04-25T02:15:18;99618.63;;;13.26;81.57
74542;BME280;63015;45.378;20.360;2023-04-25T02:17:25;99614.22;;;13.28;80.88
74542;BME280;63015;45.378;20.360;2023-04-25T02:19:26;99614.94;;;13.35;80.37
74542;BME280;63015;45.378;20.360;2023-04-25T02:21:27;99614.19;;;13.30;80.98
74542;BME280;63015;45.378;20.360;2023-04-25T02:23:28;99622.19;;;13.24;81.35
74542;BME280;63015;45.378;20.360;2023-04-25T02:25:29;99616.75;;;13.31;80.60
74542;BME280;63015;45.378;20.360;2023-04-25T02:27:30;99618.44;;;13.34;80.34
74542;BME280;63015;45.378;20.360;2023-04-25T02:29:31;99611.41;;;13.38;79.97
74542;BME280;63015;45.378;20.360;2023-04-25T02:31:32;99616.66;;;13.36;80.58
74542;BME280;63015;45.378;20.360;2023-04-25T02:33:32;99606.19;;;13.38;79.99
74542;BME280;63015;45.378;20.360;2023-04-25T02:35:33;99610.56;;;13.36;80.22
74542;BME280;63015;45.378;20.360;2023-04-25T02:37:35;99609.66;;;13.38;80.22
74542;BME280;63015;45.378;20.360;2023-04-25T02:39:35;99607.06;;;13.37;80.05
74542;BME280;63015;45.378;20.360;2023-04-25T02:41:36;99604.66;;;13.27;80.69
74542;BME280;63015;45.378;20.360;2023-04-25T02:43:37;99610.78;;;13.28;80.40
74542;BME280;63015;45.378;20.360;2023-04-25T02:45:37;99604.50;;;13.33;80.03
74542;BME280;63015;45.378;20.360;2023-04-25T02:47:38;99607.06;;;13.38;79.74
74542;BME280;63015;45.378;20.360;2023-04-25T02:49:38;99603.41;;;13.44;79.51
74542;BME280;63015;45.378;20.360;2023-04-25T02:51:39;99601.69;;;13.43;79.44
74542;BME280;63015;45.378;20.360;2023-04-25T02:53:40;99607.75;;;13.45;79.33
74542;BME280;63015;45.378;20.360;2023-04-25T02:55:41;99607.91;;;13.39;79.56
74542;BME280;63015;45.378;20.360;2023-04-25T02:57:42;99607.00;;;13.40;79.37
74542;BME280;63015;45.378;20.360;2023-04-25T02:59:46;99603.50;;;13.41;79.73
74542;BME280;63015;45.378;20.360;2023-04-25T03:01:47;99600.91;;;13.39;79.28
74542;BME280;63015;45.378;20.360;2023-04-25T03:03:47;99600.09;;;13.37;79.55
74542;BME280;63015;45.378;20.360;2023-04-25T03:05:51;99598.34;;;13.36;79.79
74542;BME280;63015;45.378;20.360;2023-04-25T03:07:57;99598.44;;;13.31;80.05
74542;BME280;63015;45.378;20.360;2023-04-25T03:09:58;99590.56;;;13.33;79.82
74542;BME280;63015;45.378;20.360;2023-04-25T03:12:00;99607.97;;;13.36;79.71
74542;BME280;63015;45.378;20.360;2023-04-25T03:14:00;99607.84;;;13.40;79.33
74542;BME280;63015;45.378;20.360;2023-04-25T03:16:01;99602.66;;;13.39;79.49
74542;BME280;63015;45.378;20.360;2023-04-25T03:18:02;99605.28;;;13.39;79.68
74542;BME280;63015;45.378;20.360;2023-04-25T03:20:03;99600.06;;;13.39;79.33
74542;BME280;63015;45.378;20.360;2023-04-25T03:22:05;99603.66;;;13.33;79.81
74542;BME280;63015;45.378;20.360;2023-04-25T03:24:05;99601.19;;;13.27;80.03
74542;BME280;63015;45.378;20.360;2023-04-25T03:26:06;99594.94;;;13.32;79.59
74542;BME280;63015;45.378;20.360;2023-04-25T03:28:07;99597.50;;;13.36;79.45
74542;BME280;63015;45.378;20.360;2023-04-25T03:30:08;99596.59;;;13.38;79.12
74542;BME280;63015;45.378;20.360;2023-04-25T03:32:10;99601.06;;;13.31;79.77
74542;BME280;63015;45.378;20.360;2023-04-25T03:34:11;99597.50;;;13.36;79.45
74542;BME280;63015;45.378;20.360;2023-04-25T03:36:12;99590.50;;;13.36;79.34
74542;BME280;63015;45.378;20.360;2023-04-25T03:38:13;99594.88;;;13.37;79.52
74542;BME280;63015;45.378;20.360;2023-04-25T03:40:14;99599.38;;;13.29;80.28
74542;BME280;63015;45.378;20.360;2023-04-25T03:42:38;99592.50;;;13.25;80.27
74542;BME280;63015;45.378;20.360;2023-04-25T03:44:39;99597.09;;;13.16;80.80
74542;BME280;63015;45.378;20.360;2023-04-25T03:46:40;99601.50;;;13.14;81.17
74542;BME280;63015;45.378;20.360;2023-04-25T03:48:41;99603.28;;;13.12;80.57
74542;BME280;63015;45.378;20.360;2023-04-25T03:50:43;99601.25;;;12.88;81.70
74542;BME280;63015;45.378;20.360;2023-04-25T03:52:44;99608.13;;;12.92;81.45
74542;BME280;63015;45.378;20.360;2023-04-25T03:54:45;99606.97;;;12.66;82.21
74542;BME280;63015;45.378;20.360;2023-04-25T03:56:49;99604.31;;;12.69;81.66
74542;BME280;63015;45.378;20.360;2023-04-25T03:58:53;99617.38;;;12.69;81.42
74542;BME280;63015;45.378;20.360;2023-04-25T04:00:56;99618.69;;;12.49;82.14
74542;BME280;63015;45.378;20.360;2023-04-25T04:02:58;99621.22;;;12.53;81.82
74542;BME280;63015;45.378;20.360;2023-04-25T04:04:58;99623.75;;;12.56;81.73
74542;BME280;63015;45.378;20.360;2023-04-25T04:06:59;99625.75;;;12.44;81.63
74542;BME280;63015;45.378;20.360;2023-04-25T04:09:04;99624.66;;;12.53;81.06
74542;BME280;63015;45.378;20.360;2023-04-25T04:11:08;99625.69;;;12.47;81.07
74542;BME280;63015;45.378;20.360;2023-04-25T04:13:08;99631.44;;;12.23;81.40
74542;BME280;63015;45.378;20.360;2023-04-25T04:15:09;99627.78;;;12.30;81.34
74542;BME280;63015;45.378;20.360;2023-04-25T04:17:10;99635.53;;;12.34;81.14
74542;BME280;63015;45.378;20.360;2023-04-25T04:19:11;99642.31;;;12.43;80.79
74542;BME280;63015;45.378;20.360;2023-04-25T04:21:15;99641.09;;;12.17;81.48
74542;BME280;63015;45.378;20.360;2023-04-25T04:23:16;99644.56;;;12.18;81.24
74542;BME280;63015;45.378;20.360;2023-04-25T04:25:17;99645.75;;;12.01;81.68
74542;BME280;63015;45.378;20.360;2023-04-25T04:27:38;99641.25;;;12.10;81.18
74542;BME280;63015;45.378;20.360;2023-04-25T04:29:52;99653.53;;;12.05;81.24
74542;BME280;63015;45.378;20.360;2023-04-25T04:32:00;99659.31;;;11.74;81.38
74542;BME280;63015;45.378;20.360;2023-04-25T04:34:02;99653.97;;;11.78;81.54
74542;BME280;63015;45.378;20.360;2023-04-25T04:36:04;99658.28;;;11.81;81.25
74542;BME280;63015;45.378;20.360;2023-04-25T04:38:08;99664.19;;;11.92;80.95
74542;BME280;63015;45.378;20.360;2023-04-25T04:40:10;99662.59;;;11.83;80.99
74542;BME280;63015;45.378;20.360;2023-04-25T04:42:27;99664.47;;;11.77;81.31
74542;BME280;63015;45.378;20.360;2023-04-25T04:44:47;99663.78;;;11.65;81.83
74542;BME280;63015;45.378;20.360;2023-04-25T04:46:59;99664.66;;;11.66;81.55
74542;BME280;63015;45.378;20.360;2023-04-25T04:49:04;99668.22;;;11.60;81.48
74542;BME280;63015;45.378;20.360;2023-04-25T04:51:17;99674.22;;;11.67;81.44
74542;BME280;63015;45.378;20.360;2023-04-25T04:53:53;99671.59;;;11.65;81.19
74542;BME280;63015;45.378;20.360;2023-04-25T04:56:22;99682.09;;;11.62;81.48
74542;BME280;63015;45.378;20.360;2023-04-25T04:58:26;99677.63;;;11.69;81.26
74542;BME280;63015;45.378;20.360;2023-04-25T05:00:53;99688.25;;;11.60;81.58
74542;BME280;63015;45.378;20.360;2023-04-25T05:03:13;99682.09;;;11.62;81.26
74542;BME280;63015;45.378;20.360;2023-04-25T05:05:27;99687.25;;;11.67;81.32
74542;BME280;63015;45.378;20.360;2023-04-25T05:07:47;99683.09;;;11.57;81.55
74542;BME280;63015;45.378;20.360;2023-04-25T05:10:18;99685.75;;;11.52;81.86
74542;BME280;63015;45.378;20.360;2023-04-25T05:12:54;99686.94;;;11.32;82.20
74542;BME280;63015;45.378;20.360;2023-04-25T05:15:13;99689.44;;;11.40;82.29
74542;BME280;63015;45.378;20.360;2023-04-25T05:17:26;99690.19;;;11.47;82.11
74542;BME280;63015;45.378;20.360;2023-04-25T05:19:46;99694.56;;;11.45;81.71
74542;BME280;63015;45.378;20.360;2023-04-25T05:22:05;99687.53;;;11.51;81.44
74542;BME280;63015;45.378;20.360;2023-04-25T05:24:17;99693.69;;;11.46;81.32
74542;BME280;63015;45.378;20.360;2023-04-25T05:26:37;99689.47;;;11.37;81.42
74542;BME280;63015;45.378;20.360;2023-04-25T05:29:01;99698.25;;;11.33;81.50
74542;BME280;63015;45.378;20.360;2023-04-25T05:31:36;99699.91;;;11.39;81.14
74542;BME280;63015;45.378;20.360;2023-04-25T05:33:43;99708.06;;;11.14;81.94
74542;BME280;63015;45.378;20.360;2023-04-25T05:35:44;99703.69;;;11.17;81.58
74542;BME280;63015;45.378;20.360;2023-04-25T05:37:46;99703.59;;;11.24;81.02
74542;BME280;63015;45.378;20.360;2023-04-25T05:39:48;99714.75;;;11.32;80.88
74542;BME280;63015;45.378;20.360;2023-04-25T05:42:00;99713.31;;;11.15;81.27
74542;BME280;63015;45.378;20.360;2023-04-25T05:44:20;99710.72;;;11.12;81.36
74542;BME280;63015;45.378;20.360;2023-04-25T05:46:40;99721.94;;;11.17;81.37
74542;BME280;63015;45.378;20.360;2023-04-25T05:49:07;99726.38;;;11.12;81.16
74542;BME280;63015;45.378;20.360;2023-04-25T05:51:17;99726.59;;;10.95;81.35
74542;BME280;63015;45.378;20.360;2023-04-25T05:53:44;99731.66;;;11.08;80.94
74542;BME280;63015;45.378;20.360;2023-04-25T05:55:48;99729.03;;;11.09;81.15
74542;BME280;63015;45.378;20.360;2023-04-25T05:57:56;99735.16;;;11.03;81.02
74542;BME280;63015;45.378;20.360;2023-04-25T05:59:58;99731.56;;;11.12;80.77
74542;BME280;63015;45.378;20.360;2023-04-25T06:02:13;99729.22;;;10.94;81.34
74542;BME280;63015;45.378;20.360;2023-04-25T06:04:15;99738.78;;;10.95;81.61
74542;BME280;63015;45.378;20.360;2023-04-25T06:06:16;99734.44;;;10.95;81.56
74542;BME280;63015;45.378;20.360;2023-04-25T06:08:17;99744.91;;;10.91;81.62
74542;BME280;63015;45.378;20.360;2023-04-25T06:10:18;99739.78;;;10.84;81.49
74542;BME280;63015;45.378;20.360;2023-04-25T06:12:18;99749.13;;;10.99;80.98
74542;BME280;63015;45.378;20.360;2023-04-25T06:14:20;99749.09;;;11.01;81.09
74542;BME280;63015;45.378;20.360;2023-04-25T06:16:23;99747.50;;;10.94;81.40
74542;BME280;63015;45.378;20.360;2023-04-25T06:18:26;99752.81;;;10.86;81.94
74542;BME280;63015;45.378;20.360;2023-04-25T06:20:26;99747.72;;;10.74;82.33
74542;BME280;63015;45.378;20.360;2023-04-25T06:22:30;99759.81;;;10.81;81.67
74542;BME280;63015;45.378;20.360;2023-04-25T06:24:31;99765.13;;;10.73;81.58
74542;BME280;63015;45.378;20.360;2023-04-25T06:26:31;99761.69;;;10.69;81.81
74542;BME280;63015;45.378;20.360;2023-04-25T06:28:32;99766.00;;;10.72;81.96
74542;BME280;63015;45.378;20.360;2023-04-25T06:30:33;99764.25;;;10.73;81.46
74542;BME280;63015;45.378;20.360;2023-04-25T06:32:39;99761.59;;;10.77;81.23
74542;BME280;63015;45.378;20.360;2023-04-25T06:34:40;99759.13;;;10.65;81.85
74542;BME280;63015;45.378;20.360;2023-04-25T06:36:41;99770.47;;;10.61;81.90
74542;BME280;63015;45.378;20.360;2023-04-25T06:38:45;99770.41;;;10.67;82.10
74542;BME280;63015;45.378;20.360;2023-04-25T06:40:46;99771.25;;;10.69;81.69
74542;BME280;63015;45.378;20.360;2023-04-25T06:42:47;99767.81;;;10.65;81.78
74542;BME280;63015;45.378;20.360;2023-04-25T06:45:17;99781.72;;;10.64;81.57
74542;BME280;63015;45.378;20.360;2023-04-25T06:47:18;99785.16;;;10.68;81.45
74542;BME280;63015;45.378;20.360;2023-04-25T06:49:19;99774.66;;;10.74;81.32
74542;BME280;63015;45.378;20.360;2023-04-25T06:51:19;99791.16;;;10.75;81.68
74542;BME280;63015;45.378;20.360;2023-04-25T06:53:20;99783.38;;;10.72;81.11
74542;BME280;63015;45.378;20.360;2023-04-25T06:55:27;99787.75;;;10.69;81.24
74542;BME280;63015;45.378;20.360;2023-04-25T06:57:50;99799.03;;;10.72;81.30
74542;BME280;63015;45.378;20.360;2023-04-25T07:00:17;99791.91;;;10.86;80.85
74542;BME280;63015;45.378;20.360;2023-04-25T07:02:18;99796.31;;;10.79;80.87
74542;BME280;63015;45.378;20.360;2023-04-25T07:04:19;99800.63;;;10.80;80.94
74542;BME280;63015;45.378;20.360;2023-04-25T07:06:24;99798.94;;;10.76;80.66
74542;BME280;63015;45.378;20.360;2023-04-25T07:08:26;99795.59;;;10.65;80.27
74542;BME280;63015;45.378;20.360;2023-04-25T07:10:27;99803.25;;;10.82;80.22
74542;BME280;63015;45.378;20.360;2023-04-25T07:12:28;99805.84;;;10.80;80.80
74542;BME280;63015;45.378;20.360;2023-04-25T07:14:29;99806.66;;;10.87;80.26
74542;BME280;63015;45.378;20.360;2023-04-25T07:16:30;99805.81;;;10.85;80.33
74542;BME280;63015;45.378;20.360;2023-04-25T07:18:32;99809.00;;;11.07;80.05
74542;BME280;63015;45.378;20.360;2023-04-25T07:20:33;99805.50;;;11.10;79.89
74542;BME280;63015;45.378;20.360;2023-04-25T07:22:35;99796.88;;;11.05;79.48
74542;BME280;63015;45.378;20.360;2023-04-25T07:24:39;99794.22;;;11.09;79.14
74542;BME280;63015;45.378;20.360;2023-04-25T07:26:40;99798.44;;;11.16;79.01
74542;BME280;63015;45.378;20.360;2023-04-25T07:28:59;99803.56;;;11.26;78.23
74542;BME280;63015;45.378;20.360;2023-04-25T07:31:00;99802.78;;;11.17;77.99
74542;BME280;63015;45.378;20.360;2023-04-25T07:33:00;99805.47;;;11.13;77.91
74542;BME280;63015;45.378;20.360;2023-04-25T07:35:01;99809.63;;;11.26;78.47
74542;BME280;63015;45.378;20.360;2023-04-25T07:37:03;99805.25;;;11.30;78.51
74542;BME280;63015;45.378;20.360;2023-04-25T07:39:12;99805.19;;;11.33;78.54
74542;BME280;63015;45.378;20.360;2023-04-25T07:41:13;99809.34;;;11.45;77.97
74542;BME280;63015;45.378;20.360;2023-04-25T07:43:13;99802.25;;;11.56;77.79
74542;BME280;63015;45.378;20.360;2023-04-25T07:45:27;99809.91;;;11.68;77.22
74542;BME280;63015;45.378;20.360;2023-04-25T07:47:28;99812.28;;;11.81;77.22
74542;BME280;63015;45.378;20.360;2023-04-25T07:49:29;99814.88;;;11.84;77.01
74542;BME280;63015;45.378;20.360;2023-04-25T07:51:29;99822.00;;;11.73;76.25
74542;BME280;63015;45.378;20.360;2023-04-25T07:53:34;99812.50;;;11.68;76.20
74542;BME280;63015;45.378;20.360;2023-04-25T07:55:40;99821.97;;;11.74;76.35
74542;BME280;63015;45.378;20.360;2023-04-25T07:57:46;99821.28;;;11.63;76.39
74542;BME280;63015;45.378;20.360;2023-04-25T07:59:46;99819.34;;;11.77;76.64
74542;BME280;63015;45.378;20.360;2023-04-25T08:01:48;99820.13;;;11.81;76.34
74542;BME280;63015;45.378;20.360;2023-04-25T08:03:49;99818.41;;;11.81;75.69
74542;BME280;63015;45.378;20.360;2023-04-25T08:05:56;99811.31;;;11.88;74.99
74542;BME280;63015;45.378;20.360;2023-04-25T08:07:59;99821.75;;;11.90;74.78
74542;BME280;63015;45.378;20.360;2023-04-25T08:10:01;99821.78;;;11.88;75.12
74542;BME280;63015;45.378;20.360;2023-04-25T08:12:07;99835.53;;;12.01;75.12
74542;BME280;63015;45.378;20.360;2023-04-25T08:14:08;99828.53;;;12.01;73.45
74542;BME280;63015;45.378;20.360;2023-04-25T08:16:09;99829.94;;;12.23;73.72
74542;BME280;63015;45.378;20.360;2023-04-25T08:18:10;99837.88;;;12.16;73.60
74542;BME280;63015;45.378;20.360;2023-04-25T08:20:11;99840.38;;;12.24;73.95
74542;BME280;63015;45.378;20.360;2023-04-25T08:22:12;99836.78;;;12.30;73.50
74542;BME280;63015;45.378;20.360;2023-04-25T08:24:24;99829.84;;;12.27;72.24
74542;BME280;63015;45.378;20.360;2023-04-25T08:26:24;99835.16;;;12.23;72.59
74542;BME280;63015;45.378;20.360;2023-04-25T08:28:25;99846.44;;;12.26;72.37
74542;BME280;63015;45.378;20.360;2023-04-25T08:30:26;99847.19;;;12.33;72.46
74542;BME280;63015;45.378;20.360;2023-04-25T08:32:27;99844.66;;;12.28;72.43
74542;BME280;63015;45.378;20.360;2023-04-25T08:34:52;99852.47;;;12.28;73.01
74542;BME280;63015;45.378;20.360;2023-04-25T08:36:54;99853.34;;;12.27;72.71
74542;BME280;63015;45.378;20.360;2023-04-25T08:39:13;99842.91;;;12.29;72.29
74542;BME280;63015;45.378;20.360;2023-04-25T08:41:22;99852.44;;;12.30;72.77
74542;BME280;63015;45.378;20.360;2023-04-25T08:43:24;99856.56;;;12.45;72.86
74542;BME280;63015;45.378;20.360;2023-04-25T08:45:27;99855.84;;;12.37;71.57
74542;BME280;63015;45.378;20.360;2023-04-25T08:47:29;99847.22;;;12.31;70.36
74542;BME280;63015;45.378;20.360;2023-04-25T08:49:32;99857.41;;;12.45;70.87
74542;BME280;63015;45.378;20.360;2023-04-25T08:51:34;99852.06;;;12.52;70.44
74542;BME280;63015;45.378;20.360;2023-04-25T08:53:38;99860.63;;;12.61;70.76
74542;BME280;63015;45.378;20.360;2023-04-25T08:55:43;99861.34;;;12.70;70.06
74542;BME280;63015;45.378;20.360;2023-04-25T08:57:45;99856.84;;;12.76;69.81
74542;BME280;63015;45.378;20.360;2023-04-25T08:59:47;99851.63;;;12.76;69.28
74542;BME280;63015;45.378;20.360;2023-04-25T09:01:49;99853.31;;;12.80;68.52
74542;BME280;63015;45.378;20.360;2023-04-25T09:03:50;99859.16;;;12.92;68.37
74542;BME280;63015;45.378;20.360;2023-04-25T09:05:55;99862.38;;;13.06;68.61
74542;BME280;63015;45.378;20.360;2023-04-25T09:07:56;99852.75;;;13.08;68.14
74542;BME280;63015;45.378;20.360;2023-04-25T09:09:57;99855.38;;;13.07;68.27
74542;BME280;63015;45.378;20.360;2023-04-25T09:12:00;99859.22;;;13.32;67.96
74542;BME280;63015;45.378;20.360;2023-04-25T09:14:14;99858.28;;;13.38;66.81
74542;BME280;63015;45.378;20.360;2023-04-25T09:16:34;99856.56;;;13.37;65.87
74542;BME280;63015;45.378;20.360;2023-04-25T09:18:55;99856.97;;;13.58;65.81
74542;BME280;63015;45.378;20.360;2023-04-25T09:21:17;99865.69;;;13.58;65.82
74542;BME280;63015;45.378;20.360;2023-04-25T09:23:22;99865.09;;;13.85;65.78
74542;BME280;63015;45.378;20.360;2023-04-25T09:25:23;99863.91;;;13.98;65.43
74542;BME280;63015;45.378;20.360;2023-04-25T09:27:25;99865.28;;;13.77;65.46
74542;BME280;63015;45.378;20.360;2023-04-25T09:29:40;99869.63;;;13.76;64.44
74542;BME280;63015;45.378;20.360;2023-04-25T09:31:41;99870.16;;;13.91;64.88
74542;BME280;63015;45.378;20.360;2023-04-25T09:33:44;99865.16;;;13.81;63.94
74542;BME280;63015;45.378;20.360;2023-04-25T09:35:44;99869.22;;;13.95;64.37
74542;BME280;63015;45.378;20.360;2023-04-25T09:38:13;99867.00;;;14.16;64.24
74542;BME280;63015;45.378;20.360;2023-04-25T09:40:30;99862.81;;;14.43;63.66
74542;BME280;63015;45.378;20.360;2023-04-25T09:42:41;99859.94;;;14.18;61.67
74542;BME280;63015;45.378;20.360;2023-04-25T09:44:43;99858.94;;;14.23;61.63
74542;BME280;63015;45.378;20.360;2023-04-25T09:46:49;99864.59;;;14.41;62.57
74542;BME280;63015;45.378;20.360;2023-04-25T09:48:55;99858.31;;;14.48;62.38
74542;BME280;63015;45.378;20.360;2023-04-25T09:51:10;99856.84;;;14.72;62.62
74542;BME280;63015;45.378;20.360;2023-04-25T09:53:12;99853.13;;;14.79;62.08
74542;BME280;63015;45.378;20.360;2023-04-25T09:55:36;99856.25;;;14.92;61.36
74542;BME280;63015;45.378;20.360;2023-04-25T09:57:38;99853.63;;;14.92;60.31
74542;BME280;63015;45.378;20.360;2023-04-25T10:00:00;99860.34;;;15.03;59.22
74542;BME280;63015;45.378;20.360;2023-04-25T10:02:06;99850.00;;;14.98;58.12
74542;BME280;63015;45.378;20.360;2023-04-25T10:04:11;99859.31;;;14.77;58.92
74542;BME280;63015;45.378;20.360;2023-04-25T10:06:27;99851.75;;;14.98;59.76
74542;BME280;63015;45.378;20.360;2023-04-25T10:08:32;99857.66;;;15.06;59.85
74542;BME280;63015;45.378;20.360;2023-04-25T10:10:33;99853.34;;;15.03;59.95
74542;BME280;63015;45.378;20.360;2023-04-25T10:12:37;99850.63;;;15.06;58.70
74542;BME280;63015;45.378;20.360;2023-04-25T10:14:40;99852.69;;;15.26;58.56
74542;BME280;63015;45.378;20.360;2023-04-25T10:16:41;99843.88;;;15.29;57.76
74542;BME280;63015;45.378;20.360;2023-04-25T10:18:42;99851.47;;;15.38;57.88
74542;BME280;63015;45.378;20.360;2023-04-25T10:20:43;99854.94;;;15.09;57.32
74542;BME280;63015;45.378;20.360;2023-04-25T10:22:45;99848.03;;;14.75;56.35
74542;BME280;63015;45.378;20.360;2023-04-25T10:24:48;99841.41;;;14.93;56.36
74542;BME280;63015;45.378;20.360;2023-04-25T10:26:50;99849.91;;;15.31;56.32
74542;BME280;63015;45.378;20.360;2023-04-25T10:28:58;99844.38;;;15.40;56.27
74542;BME280;63015;45.378;20.360;2023-04-25T10:31:03;99839.38;;;15.61;55.95
74542;BME280;63015;45.378;20.360;2023-04-25T10:33:17;99839.59;;;15.55;54.79
74542;BME280;63015;45.378;20.360;2023-04-25T10:35:27;99840.72;;;15.46;54.93
74542;BME280;63015;45.378;20.360;2023-04-25T10:37:29;99844.31;;;15.43;55.43
74542;BME280;63015;45.378;20.360;2023-04-25T10:39:32;99841.69;;;15.43;55.70
74542;BME280;63015;45.378;20.360;2023-04-25T10:41:45;99838.47;;;15.62;55.50
74542;BME280;63015;45.378;20.360;2023-04-25T10:43:47;99841.94;;;15.64;55.49
74542;BME280;63015;45.378;20.360;2023-04-25T10:45:52;99835.78;;;15.65;53.94
74542;BME280;63015;45.378;20.360;2023-04-25T10:47:52;99839.78;;;15.49;53.84
74542;BME280;63015;45.378;20.360;2023-04-25T10:49:54;99838.34;;;15.38;53.66
74542;BME280;63015;45.378;20.360;2023-04-25T10:54:17;99847.84;;;15.12;55.97
74542;BME280;63015;45.378;20.360;2023-04-25T10:56:22;99849.28;;;14.93;56.80